Time,TemperatureF,DewpointF,PressureIn,WindDirection,WindDirectionDegrees,WindSpeedMPH,WindSpeedGustMPH,Humidity,HourlyPrecipIn,Conditions,Clouds,dailyrainin,SoftwareType,DateUTC
2014-12-20 00:27:00,26.9,22.1,30.19,NE,45,1.0,6.0,82,0.00,,,-99.99,WeatherLink 5.7,2014-12-20 05:27:00,
2014-12-20 00:57:00,27.2,22.4,30.20,NE,45,1.0,6.0,82,0.00,,,-99.99,WeatherLink 5.7,2014-12-20 05:57:00,
2014-12-20 01:27:00,26.5,21.7,30.20,NE,45,0.0,6.0,82,0.00,,,-99.99,WeatherLink 5.7,2014-12-20 06:27:00,
2014-12-20 01:57:00,26.4,21.7,30.19,NE,45,1.0,5.0,82,0.00,,,-99.99,WeatherLink 5.7,2014-12-20 06:57:00,
2014-12-20 02:27:00,27.0,22.2,30.20,NE,45,3.0,7.0,82,0.00,,,-99.99,WeatherLink 5.7,2014-12-20 07:27:00,
2014-12-20 02:57:00,27.4,22.3,30.20,North,0,2.0,7.0,81,0.00,,,-99.99,WeatherLink 5.7,2014-12-20 07:57:00,
2014-12-20 03:27:00,27.2,21.8,30.20,NE,45,2.0,6.0,80,0.00,,,-99.99,WeatherLink 5.7,2014-12-20 08:27:00,
2014-12-20 03:57:00,27.1,21.7,30.20,ENE,67,1.0,6.0,80,0.00,,,-99.99,WeatherLink 5.7,2014-12-20 08:57:00,
2014-12-20 04:27:00,27.0,21.7,30.22,ENE,67,2.0,7.0,80,0.00,,,-99.99,WeatherLink 5.7,2014-12-20 09:27:00,
2014-12-20 04:57:00,26.8,21.5,30.24,NE,45,1.0,7.0,80,0.00,,,-99.99,WeatherLink 5.7,2014-12-20 09:57:00,
2014-12-20 05:27:00,26.7,21.1,30.25,NE,45,1.0,5.0,79,0.00,,,-99.99,WeatherLink 5.7,2014-12-20 10:27:00,
2014-12-20 05:57:00,26.7,21.1,30.26,NE,45,1.0,4.0,79,0.00,,,-99.99,WeatherLink 5.7,2014-12-20 10:57:00,
2014-12-20 06:27:00,26.6,21.0,30.26,NE,45,0.0,4.0,79,0.00,,,-99.99,WeatherLink 5.7,2014-12-20 11:27:00,
2014-12-20 06:57:00,26.5,21.2,30.27,NE,45,1.0,4.0,80,0.00,,,-99.99,WeatherLink 5.7,2014-12-20 11:57:00,
2014-12-20 07:27:00,26.3,20.7,30.28,NE,45,1.0,5.0,79,0.00,,,-99.99,WeatherLink 5.7,2014-12-20 12:27:00,
2014-12-20 07:57:00,25.9,20.6,30.29,NE,45,1.0,4.0,80,0.00,,,-99.99,WeatherLink 5.7,2014-12-20 12:57:00,
2014-12-20 08:27:00,25.9,20.6,30.29,NE,45,1.0,3.0,80,0.00,,,-99.99,WeatherLink 5.7,2014-12-20 13:27:00,
2014-12-20 08:57:00,26.0,20.7,30.30,NE,45,1.0,4.0,80,0.00,,,-99.99,WeatherLink 5.7,2014-12-20 13:57:00,
2014-12-20 09:27:00,26.6,21.3,30.29,NE,45,2.0,7.0,80,0.00,,,-99.99,WeatherLink 5.7,2014-12-20 14:27:00,
2014-12-20 09:57:00,27.1,21.5,30.30,NE,45,2.0,7.0,79,0.00,,,-99.99,WeatherLink 5.7,2014-12-20 14:57:00,
2014-12-20 10:27:00,27.4,21.4,30.30,NE,45,2.0,7.0,78,0.00,,,-99.99,WeatherLink 5.7,2014-12-20 15:27:00,
2014-12-20 10:57:00,27.7,21.4,30.29,NE,45,2.0,6.0,77,0.00,,,-99.99,WeatherLink 5.7,2014-12-20 15:57:00,
2014-12-20 11:27:00,28.2,21.6,30.29,NE,45,2.0,5.0,76,0.00,,,-99.99,WeatherLink 5.7,2014-12-20 16:27:00,
2014-12-20 11:57:00,28.3,21.7,30.28,NE,45,1.0,6.0,76,0.00,,,-99.99,WeatherLink 5.7,2014-12-20 16:57:00,
2014-12-20 12:27:00,28.3,21.7,30.27,NE,45,1.0,7.0,76,0.00,,,-99.99,WeatherLink 5.7,2014-12-20 17:27:00,